sensor_id;sensor_type;location;lat;lon;timestamp;pressure;altitude;pressure_sealevel;temperature;humidity
21742;BME280;11033;47.490;11.116;2022-10-30T00:02:22;93789.28;;;13.40;62.33
21742;BME280;11033;47.490;11.116;2022-10-30T00:04:47;93787.03;;;13.37;63.43
21742;BME280;11033;47.490;11.116;2022-10-30T00:07:12;93793.94;;;13.38;61.92
21742;BME280;11033;47.490;11.116;2022-10-30T00:09:37;93790.72;;;13.42;62.35
21742;BME280;11033;47.490;11.116;2022-10-30T00:12:03;93790.09;;;13.40;63.86
21742;BME280;11033;47.490;11.116;2022-10-30T00:14:28;93787.03;;;13.37;63.37
21742;BME280;11033;47.490;11.116;2022-10-30T00:16:54;93793.47;;;13.27;64.25
21742;BME280;11033;47.490;11.116;2022-10-30T00:19:19;93788.78;;;13.29;63.58
21742;BME280;11033;47.490;11.116;2022-10-30T00:21:44;93782.50;;;13.30;63.54
21742;BME280;11033;47.490;11.116;2022-10-30T00:24:10;93783.13;;;13.32;63.24
21742;BME280;11033;47.490;11.116;2022-10-30T00:26:35;93785.78;;;13.32;63.25
21742;BME280;11033;47.490;11.116;2022-10-30T00:29:00;93783.75;;;13.35;63.38
21742;BME280;11033;47.490;11.116;2022-10-30T00:31:25;93779.66;;;13.32;63.55
21742;BME280;11033;47.490;11.116;2022-10-30T00:33:52;93778.03;;;13.31;63.07
21742;BME280;11033;47.490;11.116;2022-10-30T00:36:18;93783.75;;;13.35;63.35
21742;BME280;11033;47.490;11.116;2022-10-30T00:38:44;93773.34;;;13.33;63.49
21742;BME280;11033;47.490;11.116;2022-10-30T00:41:18;93771.47;;;13.27;62.94
21742;BME280;11033;47.490;11.116;2022-10-30T00:43:43;93768.50;;;13.37;62.85
21742;BME280;11033;47.490;11.116;2022-10-30T00:46:29;93765.66;;;13.38;62.19
21742;BME280;11033;47.490;11.116;2022-10-30T00:49:17;93764.59;;;13.32;62.34
21742;BME280;11033;47.490;11.116;2022-10-30T00:51:47;93765.59;;;13.31;62.82
21742;BME280;11033;47.490;11.116;2022-10-30T00:54:15;93763.34;;;13.28;63.18
21742;BME280;11033;47.490;11.116;2022-10-30T00:56:42;93761.72;;;13.27;63.15
21742;BME280;11033;47.490;11.116;2022-10-30T00:59:10;93761.31;;;13.30;63.61
21742;BME280;11033;47.490;11.116;2022-10-30T01:01:39;93759.75;;;13.36;61.97
21742;BME280;11033;47.490;11.116;2022-10-30T01:04:06;93762.53;;;13.28;62.57
21742;BME280;11033;47.490;11.116;2022-10-30T01:06:33;93753.97;;;13.26;62.60
21742;BME280;11033;47.490;11.116;2022-10-30T01:09:00;93755.72;;;13.19;63.47
21742;BME280;11033;47.490;11.116;2022-10-30T01:11:27;93758.19;;;13.20;63.98
21742;BME280;11033;47.490;11.116;2022-10-30T01:13:54;93749.88;;;13.23;63.65
21742;BME280;11033;47.490;11.116;2022-10-30T01:16:55;93753.91;;;13.19;62.54
21742;BME280;11033;47.490;11.116;2022-10-30T01:30:57;93755.78;;;13.04;65.44
21742;BME280;11033;47.490;11.116;2022-10-30T01:38:56;93754.16;;;13.03;64.41
21742;BME280;11033;47.490;11.116;2022-10-30T01:41:23;93739.47;;;13.00;63.79
21742;BME280;11033;47.490;11.116;2022-10-30T01:43:53;93748.03;;;13.02;64.33
21742;BME280;11033;47.490;11.116;2022-10-30T01:49:19;93745.94;;;12.98;63.39
21742;BME280;11033;47.490;11.116;2022-10-30T01:54:50;93736.50;;;12.89;64.57
21742;BME280;11033;47.490;11.116;2022-10-30T01:57:38;93738.13;;;12.90;64.36
21742;BME280;11033;47.490;11.116;2022-10-30T02:00:09;93740.53;;;12.85;63.82
21742;BME280;11033;47.490;11.116;2022-10-30T02:02:35;93733.34;;;12.79;64.32
21742;BME280;11033;47.490;11.116;2022-10-30T02:05:00;93730.69;;;12.79;63.93
21742;BME280;11033;47.490;11.116;2022-10-30T02:07:26;93734.78;;;12.81;64.38
21742;BME280;11033;47.490;11.116;2022-10-30T02:09:52;93733.91;;;12.74;64.92
21742;BME280;11033;47.490;11.116;2022-10-30T02:12:19;93729.25;;;12.76;64.24
21742;BME280;11033;47.490;11.116;2022-10-30T02:14:48;93726.53;;;12.69;63.88
21742;BME280;11033;47.490;11.116;2022-10-30T02:17:15;93722.00;;;12.63;64.73
21742;BME280;11033;47.490;11.116;2022-10-30T02:19:41;93722.66;;;12.65;64.10
21742;BME280;11033;47.490;11.116;2022-10-30T02:22:07;93721.00;;;12.64;63.91
21742;BME280;11033;47.490;11.116;2022-10-30T02:24:32;93714.34;;;12.68;63.88
21742;BME280;11033;47.490;11.116;2022-10-30T02:26:58;93717.47;;;12.57;65.22
21742;BME280;11033;47.490;11.116;2022-10-30T02:29:23;93717.84;;;12.54;64.83
21742;BME280;11033;47.490;11.116;2022-10-30T02:31:48;93725.66;;;12.62;64.88
21742;BME280;11033;47.490;11.116;2022-10-30T02:34:14;93724.03;;;12.61;63.96
21742;BME280;11033;47.490;11.116;2022-10-30T02:36:40;93724.53;;;12.72;63.66
21742;BME280;11033;47.490;11.116;2022-10-30T02:39:06;93723.78;;;12.56;64.37
21742;BME280;11033;47.490;11.116;2022-10-30T02:41:31;93721.50;;;12.53;64.17
21742;BME280;11033;47.490;11.116;2022-10-30T02:43:57;93718.75;;;12.61;64.09
21742;BME280;11033;47.490;11.116;2022-10-30T02:46:22;93717.09;;;12.60;63.96
21742;BME280;11033;47.490;11.116;2022-10-30T02:48:48;93722.31;;;12.54;64.54
21742;BME280;11033;47.490;11.116;2022-10-30T02:51:14;93717.03;;;12.54;64.29
21742;BME280;11033;47.490;11.116;2022-10-30T02:53:39;93710.13;;;12.53;63.74
21742;BME280;11033;47.490;11.116;2022-10-30T02:56:06;93712.94;;;12.51;63.64
21742;BME280;11033;47.490;11.116;2022-10-30T02:58:33;93714.22;;;12.55;63.63
21742;BME280;11033;47.490;11.116;2022-10-30T03:01:10;93714.59;;;12.52;64.86
21742;BME280;11033;47.490;11.116;2022-10-30T03:03:37;93710.50;;;12.50;64.75
21742;BME280;11033;47.490;11.116;2022-10-30T03:06:04;93718.97;;;12.45;64.02
21742;BME280;11033;47.490;11.116;2022-10-30T03:08:29;93707.84;;;12.50;64.22
21742;BME280;11033;47.490;11.116;2022-10-30T03:10:59;93710.94;;;12.53;63.80
21742;BME280;11033;47.490;11.116;2022-10-30T03:13:26;93716.22;;;12.53;64.53
21742;BME280;11033;47.490;11.116;2022-10-30T03:15:51;93713.31;;;12.48;64.71
21742;BME280;11033;47.490;11.116;2022-10-30T03:18:16;93713.50;;;12.47;63.78
21742;BME280;11033;47.490;11.116;2022-10-30T03:20:42;93711.88;;;12.31;65.74
21742;BME280;11033;47.490;11.116;2022-10-30T03:23:07;93712.06;;;12.44;64.17
21742;BME280;11033;47.490;11.116;2022-10-30T03:25:32;93714.06;;;12.42;64.68
21742;BME280;11033;47.490;11.116;2022-10-30T03:27:57;93718.91;;;12.38;65.07
21742;BME280;11033;47.490;11.116;2022-10-30T03:30:23;93714.81;;;12.36;64.57
21742;BME280;11033;47.490;11.116;2022-10-30T03:32:48;93715.44;;;12.38;64.53
21742;BME280;11033;47.490;11.116;2022-10-30T03:35:13;93715.63;;;12.36;65.86
21742;BME280;11033;47.490;11.116;2022-10-30T03:37:39;93714.06;;;12.42;64.06
21742;BME280;11033;47.490;11.116;2022-10-30T03:40:04;93717.72;;;12.41;65.38
21742;BME280;11033;47.490;11.116;2022-10-30T03:42:30;93719.34;;;12.42;64.30
21742;BME280;11033;47.490;11.116;2022-10-30T03:44:55;93723.38;;;12.38;64.85
21742;BME280;11033;47.490;11.116;2022-10-30T03:47:20;93725.91;;;12.46;64.76
21742;BME280;11033;47.490;11.116;2022-10-30T03:49:46;93719.78;;;12.46;64.22
21742;BME280;11033;47.490;11.116;2022-10-30T03:52:11;93723.63;;;12.43;64.18
21742;BME280;11033;47.490;11.116;2022-10-30T03:54:36;93719.34;;;12.42;64.75
21742;BME280;11033;47.490;11.116;2022-10-30T03:57:02;93725.72;;;12.33;65.93
21742;BME280;11033;47.490;11.116;2022-10-30T03:59:27;93716.78;;;12.34;64.93
21742;BME280;11033;47.490;11.116;2022-10-30T04:01:53;93722.63;;;12.44;63.62
21742;BME280;11033;47.490;11.116;2022-10-30T04:04:18;93723.00;;;12.41;64.54
21742;BME280;11033;47.490;11.116;2022-10-30T04:06:43;93711.88;;;12.31;64.99
21742;BME280;11033;47.490;11.116;2022-10-30T04:09:09;93711.44;;;12.27;65.06
21742;BME280;11033;47.490;11.116;2022-10-30T04:11:34;93712.81;;;12.23;65.03
21742;BME280;11033;47.490;11.116;2022-10-30T04:13:59;93714.97;;;12.34;64.49
21742;BME280;11033;47.490;11.116;2022-10-30T04:16:24;93712.63;;;12.40;65.08
21742;BME280;11033;47.490;11.116;2022-10-30T04:18:50;93707.53;;;12.38;64.31
21742;BME280;11033;47.490;11.116;2022-10-30T04:21:15;93711.44;;;12.42;64.40
21742;BME280;11033;47.490;11.116;2022-10-30T04:23:40;93708.63;;;12.29;65.85
21742;BME280;11033;47.490;11.116;2022-10-30T04:26:06;93713.00;;;12.22;66.33
21742;BME280;11033;47.490;11.116;2022-10-30T04:28:31;93707.34;;;12.25;65.46
21742;BME280;11033;47.490;11.116;2022-10-30T04:30:56;93717.09;;;12.24;66.34
21742;BME280;11033;47.490;11.116;2022-10-30T04:33:21;93705.97;;;12.29;65.06
21742;BME280;11033;47.490;11.116;2022-10-30T04:35:47;93718.16;;;12.30;64.55
21742;BME280;11033;47.490;11.116;2022-10-30T04:38:14;93706.59;;;12.31;63.58
21742;BME280;11033;47.490;11.116;2022-10-30T04:40:41;93702.06;;;12.25;65.08
21742;BME280;11033;47.490;11.116;2022-10-30T04:43:08;93701.81;;;12.20;66.25
21742;BME280;11033;47.490;11.116;2022-10-30T04:45:34;93705.34;;;12.27;64.81
21742;BME280;11033;47.490;11.116;2022-10-30T04:48:05;93707.16;;;12.26;63.49
21742;BME280;11033;47.490;11.116;2022-10-30T04:50:31;93699.97;;;12.20;65.33
21742;BME280;11033;47.490;11.116;2022-10-30T04:52:59;93700.81;;;12.21;65.18
21742;BME280;11033;47.490;11.116;2022-10-30T04:55:24;93696.66;;;12.33;63.54
21742;BME280;11033;47.490;11.116;2022-10-30T04:57:54;93694.41;;;12.30;63.79
21742;BME280;11033;47.490;11.116;2022-10-30T05:00:20;93697.78;;;12.24;65.01
21742;BME280;11033;47.490;11.116;2022-10-30T05:02:45;93687.59;;;12.21;64.55
21742;BME280;11033;47.490;11.116;2022-10-30T05:05:10;93696.34;;;12.21;63.14
21742;BME280;11033;47.490;11.116;2022-10-30T05:07:36;93696.06;;;12.16;65.54
21742;BME280;11033;47.490;11.116;2022-10-30T05:10:01;93685.41;;;12.24;63.87
21742;BME280;11033;47.490;11.116;2022-10-30T05:12:26;93688.22;;;12.23;64.70
21742;BME280;11033;47.490;11.116;2022-10-30T05:14:51;93685.31;;;12.18;65.31
21742;BME280;11033;47.490;11.116;2022-10-30T05:17:17;93695.00;;;12.11;65.91
21742;BME280;11033;47.490;11.116;2022-10-30T05:19:42;93679.53;;;12.07;65.32
21742;BME280;11033;47.490;11.116;2022-10-30T05:22:07;93686.44;;;12.09;64.97
21742;BME280;11033;47.490;11.116;2022-10-30T05:24:34;93678.25;;;12.03;65.46
21742;BME280;11033;47.490;11.116;2022-10-30T05:26:59;93680.53;;;12.06;65.11
21742;BME280;11033;47.490;11.116;2022-10-30T05:29:24;93681.34;;;12.07;65.39
21742;BME280;11033;47.490;11.116;2022-10-30T05:31:50;93684.44;;;12.11;65.59
21742;BME280;11033;47.490;11.116;2022-10-30T05:34:15;93682.50;;;12.19;64.50
21742;BME280;11033;47.490;11.116;2022-10-30T05:36:40;93689.34;;;12.14;65.05
21742;BME280;11033;47.490;11.116;2022-10-30T05:39:06;93683.88;;;12.15;64.85
21742;BME280;11033;47.490;11.116;2022-10-30T05:41:31;93686.44;;;12.09;65.73
21742;BME280;11033;47.490;11.116;2022-10-30T05:43:56;93682.44;;;12.13;64.76
21742;BME280;11033;47.490;11.116;2022-10-30T05:46:21;93687.06;;;12.11;64.86
21742;BME280;11033;47.490;11.116;2022-10-30T05:48:47;93686.06;;;12.12;64.65
21742;BME280;11033;47.490;11.116;2022-10-30T05:51:12;93683.16;;;12.06;65.29
21742;BME280;11033;47.490;11.116;2022-10-30T05:53:37;93680.34;;;12.08;64.13
21742;BME280;11033;47.490;11.116;2022-10-30T05:56:03;93673.97;;;12.02;65.68
21742;BME280;11033;47.490;11.116;2022-10-30T05:58:28;93679.00;;;11.97;65.05
21742;BME280;11033;47.490;11.116;2022-10-30T06:00:53;93677.88;;;12.06;64.57
21742;BME280;11033;47.490;11.116;2022-10-30T06:03:19;93677.88;;;12.06;65.22
21742;BME280;11033;47.490;11.116;2022-10-30T06:05:45;93677.88;;;12.06;64.65
21742;BME280;11033;47.490;11.116;2022-10-30T06:08:11;93677.06;;;12.06;64.71
21742;BME280;11033;47.490;11.116;2022-10-30T06:10:37;93673.06;;;12.10;64.74
21742;BME280;11033;47.490;11.116;2022-10-30T06:13:05;93685.06;;;12.13;65.51
21742;BME280;11033;47.490;11.116;2022-10-30T06:15:31;93676.97;;;12.14;64.19
21742;BME280;11033;47.490;11.116;2022-10-30T06:17:57;93675.44;;;12.05;65.64
21742;BME280;11033;47.490;11.116;2022-10-30T06:20:25;93684.00;;;12.07;64.89
21742;BME280;11033;47.490;11.116;2022-10-30T06:22:58;93676.78;;;12.16;64.04
21742;BME280;11033;47.490;11.116;2022-10-30T06:25:24;93679.03;;;12.19;64.58
21742;BME280;11033;47.490;11.116;2022-10-30T06:27:50;93681.31;;;12.22;64.70
21742;BME280;11033;47.490;11.116;2022-10-30T06:30:16;93681.81;;;12.32;64.00
21742;BME280;11033;47.490;11.116;2022-10-30T06:32:42;93680.47;;;12.36;63.02
21742;BME280;11033;47.490;11.116;2022-10-30T06:35:07;93681.44;;;12.35;64.11
21742;BME280;11033;47.490;11.116;2022-10-30T06:37:33;93681.53;;;12.42;64.15
21742;BME280;11033;47.490;11.116;2022-10-30T06:39:58;93677.44;;;12.39;64.39
21742;BME280;11033;47.490;11.116;2022-10-30T06:42:23;93672.25;;;12.46;64.16
21742;BME280;11033;47.490;11.116;2022-10-30T06:44:48;93678.72;;;12.43;65.34
21742;BME280;11033;47.490;11.116;2022-10-30T06:47:14;93673.44;;;12.43;64.55
21742;BME280;11033;47.490;11.116;2022-10-30T06:49:40;93681.63;;;12.48;64.55
21742;BME280;11033;47.490;11.116;2022-10-30T06:52:05;93674.94;;;12.52;64.31
21742;BME280;11033;47.490;11.116;2022-10-30T06:54:31;93670.72;;;12.58;63.95
21742;BME280;11033;47.490;11.116;2022-10-30T06:56:57;93672.81;;;12.62;64.07
21742;BME280;11033;47.490;11.116;2022-10-30T06:59:22;93674.81;;;12.60;64.57
21742;BME280;11033;47.490;11.116;2022-10-30T07:01:48;93678.91;;;12.63;64.40
21742;BME280;11033;47.490;11.116;2022-10-30T07:04:13;93677.97;;;12.70;64.08
21742;BME280;11033;47.490;11.116;2022-10-30T07:06:38;93683.50;;;12.76;62.95
21742;BME280;11033;47.490;11.116;2022-10-30T07:09:04;93686.38;;;12.81;62.70
21742;BME280;11033;47.490;11.116;2022-10-30T07:11:29;93679.91;;;12.83;63.25
21742;BME280;11033;47.490;11.116;2022-10-30T07:13:54;93685.63;;;12.87;63.43
21742;BME280;11033;47.490;11.116;2022-10-30T07:16:20;93687.88;;;12.90;62.99
21742;BME280;11033;47.490;11.116;2022-10-30T07:18:45;93681.84;;;12.96;62.90
21742;BME280;11033;47.490;11.116;2022-10-30T07:21:10;93692.94;;;13.06;63.05
21742;BME280;11033;47.490;11.116;2022-10-30T07:23:35;93695.19;;;13.09;61.98
21742;BME280;11033;47.490;11.116;2022-10-30T07:26:01;93699.72;;;13.15;62.34
21742;BME280;11033;47.490;11.116;2022-10-30T07:28:26;93699.19;;;13.20;61.90
21742;BME280;11033;47.490;11.116;2022-10-30T07:30:51;93692.91;;;13.27;62.29
21742;BME280;11033;47.490;11.116;2022-10-30T07:33:16;93693.34;;;13.31;62.12
21742;BME280;11033;47.490;11.116;2022-10-30T07:35:42;93689.88;;;13.30;62.11
21742;BME280;11033;47.490;11.116;2022-10-30T07:38:10;93698.69;;;13.38;62.10
21742;BME280;11033;47.490;11.116;2022-10-30T07:40:36;93682.22;;;13.42;62.54
21742;BME280;11033;47.490;11.116;2022-10-30T07:43:03;93676.97;;;13.49;62.70
21742;BME280;11033;47.490;11.116;2022-10-30T07:45:29;93688.41;;;13.56;62.54
21742;BME280;11033;47.490;11.116;2022-10-30T07:47:54;93686.44;;;13.64;62.58
21742;BME280;11033;47.490;11.116;2022-10-30T07:50:20;93677.31;;;13.67;63.04
21742;BME280;11033;47.490;11.116;2022-10-30T07:52:46;93684.28;;;13.75;63.87
21742;BME280;11033;47.490;11.116;2022-10-30T07:55:11;93681.91;;;13.86;62.50
21742;BME280;11033;47.490;11.116;2022-10-30T07:57:38;93681.69;;;13.88;61.89
21742;BME280;11033;47.490;11.116;2022-10-30T08:00:05;93683.56;;;13.94;63.57
21742;BME280;11033;47.490;11.116;2022-10-30T08:02:31;93683.88;;;14.25;61.81
21742;BME280;11033;47.490;11.116;2022-10-30T08:04:56;93678.34;;;14.20;61.89
21742;BME280;11033;47.490;11.116;2022-10-30T08:07:22;93678.56;;;14.25;61.75
21742;BME280;11033;47.490;11.116;2022-10-30T08:09:47;93681.66;;;14.29;61.27
21742;BME280;11033;47.490;11.116;2022-10-30T08:12:13;93679.47;;;14.39;60.50
21742;BME280;11033;47.490;11.116;2022-10-30T08:14:39;93676.47;;;14.55;60.31
21742;BME280;11033;47.490;11.116;2022-10-30T08:17:04;93677.31;;;14.82;60.11
21742;BME280;11033;47.490;11.116;2022-10-30T08:19:31;93677.53;;;14.87;58.97
21742;BME280;11033;47.490;11.116;2022-10-30T08:21:57;93685.13;;;15.17;60.07
21742;BME280;11033;47.490;11.116;2022-10-30T08:24:22;93671.63;;;15.78;57.81
21742;BME280;11033;47.490;11.116;2022-10-30T08:26:50;93664.94;;;16.20;57.15
21742;BME280;11033;47.490;11.116;2022-10-30T08:29:16;93671.88;;;16.21;56.94
21742;BME280;11033;47.490;11.116;2022-10-30T08:31:41;93663.88;;;16.34;57.47
21742;BME280;11033;47.490;11.116;2022-10-30T08:34:07;93654.59;;;16.43;56.68
21742;BME280;11033;47.490;11.116;2022-10-30T08:36:33;93659.84;;;16.57;57.51
21742;BME280;11033;47.490;11.116;2022-10-30T08:38:58;93649.13;;;16.76;57.72
21742;BME280;11033;47.490;11.116;2022-10-30T08:41:25;93656.72;;;17.04;56.37
21742;BME280;11033;47.490;11.116;2022-10-30T08:43:50;93649.00;;;17.21;55.32
21742;BME280;11033;47.490;11.116;2022-10-30T08:46:15;93652.84;;;17.50;55.13
21742;BME280;11033;47.490;11.116;2022-10-30T08:48:41;93648.56;;;17.74;54.32
21742;BME280;11033;47.490;11.116;2022-10-30T08:51:06;93650.72;;;18.02;54.82
21742;BME280;11033;47.490;11.116;2022-10-30T08:53:31;93647.44;;;18.18;53.62
21742;BME280;11033;47.490;11.116;2022-10-30T08:55:57;93648.44;;;18.54;54.22
21742;BME280;11033;47.490;11.116;2022-10-30T08:58:22;93636.38;;;18.81;54.55
21742;BME280;11033;47.490;11.116;2022-10-30T09:00:48;93638.66;;;19.08;53.44
21742;BME280;11033;47.490;11.116;2022-10-30T09:03:13;93636.03;;;19.31;52.97
21742;BME280;11033;47.490;11.116;2022-10-30T09:05:39;93639.94;;;19.58;52.76
21742;BME280;11033;47.490;11.116;2022-10-30T09:08:04;93631.88;;;19.82;51.44
21742;BME280;11033;47.490;11.116;2022-10-30T09:10:29;93638.28;;;19.92;50.09
21742;BME280;11033;47.490;11.116;2022-10-30T09:12:57;93630.66;;;20.24;52.15
21742;BME280;11033;47.490;11.116;2022-10-30T09:15:22;93629.53;;;20.20;48.93
21742;BME280;11033;47.490;11.116;2022-10-30T09:18:00;93623.25;;;20.55;48.81
21742;BME280;11033;47.490;11.116;2022-10-30T09:20:26;93619.78;;;21.28;48.14
21742;BME280;11033;47.490;11.116;2022-10-30T09:22:52;93619.22;;;21.98;46.76
21742;BME280;11033;47.490;11.116;2022-10-30T09:25:17;93620.75;;;22.76;46.47
21742;BME280;11033;47.490;11.116;2022-10-30T09:27:43;93622.31;;;23.26;43.91
21742;BME280;11033;47.490;11.116;2022-10-30T09:30:09;93616.53;;;24.14;44.57
21742;BME280;11033;47.490;11.116;2022-10-30T09:32:34;93612.09;;;25.27;45.06
21742;BME280;11033;47.490;11.116;2022-10-30T09:35:00;93612.63;;;25.14;39.65
21742;BME280;11033;47.490;11.116;2022-10-30T09:37:25;93615.16;;;24.69;39.78
21742;BME280;11033;47.490;11.116;2022-10-30T09:39:51;93612.13;;;25.68;38.63
21742;BME280;11033;47.490;11.116;2022-10-30T09:42:39;93613.78;;;26.74;38.89
21742;BME280;11033;47.490;11.116;2022-10-30T09:51:26;93605.47;;;27.54;34.36
21742;BME280;11033;47.490;11.116;2022-10-30T09:56:52;93600.56;;;29.66;34.57
21742;BME280;11033;47.490;11.116;2022-10-30T09:59:29;93610.63;;;27.85;33.38
21742;BME280;11033;47.490;11.116;2022-10-30T10:02:00;93604.97;;;29.62;34.74
21742;BME280;11033;47.490;11.116;2022-10-30T10:04:40;93607.38;;;31.11;34.76
21742;BME280;11033;47.490;11.116;2022-10-30T10:07:50;93597.06;;;29.98;32.14
21742;BME280;11033;47.490;11.116;2022-10-30T10:10:00;93597.97;;;30.67;32.08
21742;BME280;11033;47.490;11.116;2022-10-30T10:12:42;93599.03;;;32.55;31.69
21742;BME280;11033;47.490;11.116;2022-10-30T10:18:01;93596.44;;;33.07;27.12
21742;BME280;11033;47.490;11.116;2022-10-30T10:20:36;93597.34;;;34.02;29.34
21742;BME280;11033;47.490;11.116;2022-10-30T10:23:13;93598.28;;;34.71;27.35
21742;BME280;11033;47.490;11.116;2022-10-30T10:25:41;93595.59;;;35.71;28.35
21742;BME280;11033;47.490;11.116;2022-10-30T10:28:46;93591.63;;;35.18;25.64
21742;BME280;11033;47.490;11.116;2022-10-30T10:31:21;93593.56;;;36.79;26.93
21742;BME280;11033;47.490;11.116;2022-10-30T10:34:11;93585.63;;;37.51;25.61
21742;BME280;11033;47.490;11.116;2022-10-30T10:37:15;93583.91;;;37.99;27.32
21742;BME280;11033;47.490;11.116;2022-10-30T10:40:16;93582.09;;;35.45;24.29
21742;BME280;11033;47.490;11.116;2022-10-30T10:43:12;93577.16;;;36.46;26.26
21742;BME280;11033;47.490;11.116;2022-10-30T10:50:48;93570.28;;;39.79;24.95
21742;BME280;11033;47.490;11.116;2022-10-30T10:53:26;93573.06;;;39.79;22.28
21742;BME280;11033;47.490;11.116;2022-10-30T10:55:57;93569.03;;;39.57;24.84
21742;BME280;11033;47.490;11.116;2022-10-30T10:58:34;93568.34;;;40.38;23.83
21742;BME280;11033;47.490;11.116;2022-10-30T11:01:03;93564.38;;;42.17;22.27
21742;BME280;11033;47.490;11.116;2022-10-30T11:03:55;93555.78;;;39.47;21.54
21742;BME280;11033;47.490;11.116;2022-10-30T11:06:26;93560.56;;;40.89;23.56
21742;BME280;11033;47.490;11.116;2022-10-30T11:08:56;93562.44;;;41.08;21.23
21742;BME280;11033;47.490;11.116;2022-10-30T11:11:25;93549.66;;;41.53;22.53
21742;BME280;11033;47.490;11.116;2022-10-30T11:13:51;93547.72;;;42.13;19.51
21742;BME280;11033;47.490;11.116;2022-10-30T11:16:32;93546.25;;;41.33;20.73
21742;BME280;11033;47.490;11.116;2022-10-30T11:19:04;93551.66;;;44.07;21.08
21742;BME280;11033;47.490;11.116;2022-10-30T11:21:37;93540.66;;;44.42;19.11
21742;BME280;11033;47.490;11.116;2022-10-30T11:24:28;93538.81;;;43.15;19.43
21742;BME280;11033;47.490;11.116;2022-10-30T11:27:43;93541.97;;;44.91;17.88
21742;BME280;11033;47.490;11.116;2022-10-30T11:30:02;93535.94;;;44.53;19.07
21742;BME280;11033;47.490;11.116;2022-10-30T11:32:30;93533.13;;;43.56;17.97
21742;BME280;11033;47.490;11.116;2022-10-30T11:37:35;93530.75;;;45.59;16.28
21742;BME280;11033;47.490;11.116;2022-10-30T11:42:37;93530.53;;;43.91;18.31
21742;BME280;11033;47.490;11.116;2022-10-30T11:45:04;93524.97;;;43.84;16.20
21742;BME280;11033;47.490;11.116;2022-10-30T11:47:37;93528.44;;;44.97;16.90
21742;BME280;11033;47.490;11.116;2022-10-30T11:50:27;93522.94;;;46.96;17.10
21742;BME280;11033;47.490;11.116;2022-10-30T11:52:59;93522.44;;;47.09;17.45
21742;BME280;11033;47.490;11.116;2022-10-30T11:55:30;93519.81;;;46.91;18.52
21742;BME280;11033;47.490;11.116;2022-10-30T11:57:57;93520.47;;;47.05;15.63
21742;BME280;11033;47.490;11.116;2022-10-30T12:00:26;93514.47;;;44.57;16.74
21742;BME280;11033;47.490;11.116;2022-10-30T12:02:54;93520.50;;;45.24;16.63
21742;BME280;11033;47.490;11.116;2022-10-30T12:07:52;93515.84;;;46.88;16.54
21742;BME280;11033;47.490;11.116;2022-10-30T12:10:28;93517.03;;;48.68;15.69
21742;BME280;11033;47.490;11.116;2022-10-30T12:12:54;93510.88;;;47.89;16.03
21742;BME280;11033;47.490;11.116;2022-10-30T12:15:23;93514.31;;;48.92;16.69
21742;BME280;11033;47.490;11.116;2022-10-30T12:18:00;93509.78;;;48.13;15.31
21742;BME280;11033;47.490;11.116;2022-10-30T12:20:27;93512.84;;;49.07;15.83
21742;BME280;11033;47.490;11.116;2022-10-30T12:22:53;93511.84;;;46.89;15.59
21742;BME280;11033;47.490;11.116;2022-10-30T12:25:25;93502.16;;;46.46;16.11
21742;BME280;11033;47.490;11.116;2022-10-30T12:27:59;93504.13;;;47.52;16.17
21742;BME280;11033;47.490;11.116;2022-10-30T12:30:25;93500.03;;;48.82;15.67
21742;BME280;11033;47.490;11.116;2022-10-30T12:33:02;93506.63;;;48.69;16.15
21742;BME280;11033;47.490;11.116;2022-10-30T12:35:45;93507.41;;;48.69;14.33
21742;BME280;11033;47.490;11.116;2022-10-30T12:38:35;93503.59;;;48.29;16.18
21742;BME280;11033;47.490;11.116;2022-10-30T12:41:11;93494.03;;;45.96;14.26
21742;BME280;11033;47.490;11.116;2022-10-30T12:43:41;93502.81;;;45.98;15.44
21742;BME280;11033;47.490;11.116;2022-10-30T12:49:13;93504.00;;;48.85;15.91
21742;BME280;11033;47.490;11.116;2022-10-30T12:52:05;93489.72;;;45.80;15.26
21742;BME280;11033;47.490;11.116;2022-10-30T12:57:18;93498.34;;;48.88;14.94
21742;BME280;11033;47.490;11.116;2022-10-30T13:00:05;93483.81;;;47.41;14.69
21742;BME280;11033;47.490;11.116;2022-10-30T13:02:39;93484.50;;;48.51;16.18
21742;BME280;11033;47.490;11.116;2022-10-30T13:05:42;93479.13;;;48.91;15.66
21742;BME280;11033;47.490;11.116;2022-10-30T13:08:31;93475.44;;;46.48;14.38
21742;BME280;11033;47.490;11.116;2022-10-30T13:11:17;93480.59;;;48.99;14.24
21742;BME280;11033;47.490;11.116;2022-10-30T13:13:49;93473.94;;;49.79;15.24
21742;BME280;11033;47.490;11.116;2022-10-30T13:18:45;93477.78;;;48.99;15.14
21742;BME280;11033;47.490;11.116;2022-10-30T13:23:50;93476.22;;;48.98;14.80
21742;BME280;11033;47.490;11.116;2022-10-30T13:26:30;93474.50;;;47.58;15.20
21742;BME280;11033;47.490;11.116;2022-10-30T13:29:19;93474.59;;;48.16;15.02
21742;BME280;11033;47.490;11.116;2022-10-30T13:45:46;93485.63;;;46.76;16.72
21742;BME280;11033;47.490;11.116;2022-10-30T13:48:41;93484.25;;;46.98;16.16
21742;BME280;11033;47.490;11.116;2022-10-30T13:53:36;93485.88;;;46.40;17.23
21742;BME280;11033;47.490;11.116;2022-10-30T13:56:03;93475.94;;;45.16;16.27
21742;BME280;11033;47.490;11.116;2022-10-30T13:58:36;93475.59;;;44.90;17.39
21742;BME280;11033;47.490;11.116;2022-10-30T14:01:14;93482.59;;;45.69;16.60
21742;BME280;11033;47.490;11.116;2022-10-30T14:03:52;93479.91;;;44.48;17.30
21742;BME280;11033;47.490;11.116;2022-10-30T14:11:34;93487.19;;;46.77;16.71
21742;BME280;11033;47.490;11.116;2022-10-30T14:14:04;93482.75;;;46.24;16.83
21742;BME280;11033;47.490;11.116;2022-10-30T14:16:43;93480.81;;;46.14;16.61
21742;BME280;11033;47.490;11.116;2022-10-30T14:19:14;93485.09;;;45.06;18.30
21742;BME280;11033;47.490;11.116;2022-10-30T14:21:55;93484.63;;;44.22;17.71